Time;durP1;ratioP1;P1;durP2;ratioP2;P2;SDS_P1;SDS_P2;PMS_P1;PMS_P2;Temp;Humidity;BMP_temperature;BMP_pressure;BME280_temperature;BME280_humidity;BME280_pressure;Samples;Min_cycle;Max_cycle;Signal;HPM_P1;HPM_P2
2021/05/12 00:02:24;;;;;;;;;;;;;;;26.31;31.86;100598.06;5057516;28;1902;-38
2021/05/12 00:04:49;;;;;;;;;;;;;;;26.29;31.69;100591.00;5056496;28;783;-42
2021/05/12 00:07:15;;;;;;;;;;;;;;;26.30;31.68;100589.13;5057950;28;764;-39
2021/05/12 00:09:40;;;;;;;;;;;;;;;26.26;31.73;100587.81;5057615;28;795;-45
2021/05/12 00:12:05;;;;;;;;;;;;;;;26.26;31.50;100590.50;5056672;28;939;-41
2021/05/12 00:14:31;;;;;;;;;;;;;;;26.25;31.46;100586.16;5072790;28;1137;-39
2021/05/12 00:17:02;;;;;;;;;;;;;;;26.28;31.32;100594.72;5057431;28;887;-43
2021/05/12 00:19:28;;;;;;;;;;;;;;;26.33;31.48;100585.25;5057254;28;787;-46
2021/05/12 00:22:02;;;;;;;;;;;;;;;26.36;31.49;100582.22;5057591;28;1128;-39
2021/05/12 00:24:27;;;;;;;;;;;;;;;26.29;31.53;100580.19;5056988;28;882;-41
2021/05/12 00:26:53;;;;;;;;;;;;;;;26.26;31.64;100572.47;5056651;28;963;-42
2021/05/12 00:29:18;;;;;;;;;;;;;;;26.22;31.94;100576.56;5057432;28;811;-40
2021/05/12 00:31:43;;;;;;;;;;;;;;;26.22;31.93;100571.19;5057020;28;827;-41
2021/05/12 00:34:09;;;;;;;;;;;;;;;26.27;31.68;100567.94;5056958;28;775;-45
2021/05/12 00:36:34;;;;;;;;;;;;;;;26.26;31.75;100561.69;5050382;28;1138;-39
2021/05/12 00:39:02;;;;;;;;;;;;;;;26.25;31.70;100560.03;5037193;28;842;-39
2021/05/12 00:41:27;;;;;;;;;;;;;;;26.25;31.71;100561.88;5040969;28;955;-43
2021/05/12 00:43:52;;;;;;;;;;;;;;;26.27;31.55;100551.75;5056919;28;1963;-43
2021/05/12 00:46:18;;;;;;;;;;;;;;;26.28;31.57;100545.34;5057113;28;760;-40
2021/05/12 00:48:43;;;;;;;;;;;;;;;26.24;31.68;100552.94;5056923;28;714;-39
2021/05/12 00:51:08;;;;;;;;;;;;;;;26.21;31.83;100547.09;5039443;28;890;-41
2021/05/12 00:53:34;;;;;;;;;;;;;;;26.21;32.02;100539.00;5057323;28;819;-39
2021/05/12 00:55:59;;;;;;;;;;;;;;;26.25;31.76;100534.91;5056275;28;951;-38
2021/05/12 00:58:24;;;;;;;;;;;;;;;26.25;31.21;100538.47;5056729;28;939;-39
2021/05/12 01:00:50;;;;;;;;;;;;;;;26.23;31.58;100532.41;5056996;28;823;-39
2021/05/12 01:03:15;;;;;;;;;;;;;;;26.25;31.09;100521.44;5056342;28;1971;-41
2021/05/12 01:05:41;;;;;;;;;;;;;;;26.31;31.65;100528.78;5056469;28;847;-43
2021/05/12 01:08:06;;;;;;;;;;;;;;;26.31;31.96;100530.66;5057124;28;806;-40
2021/05/12 01:10:32;;;;;;;;;;;;;;;26.33;31.84;100532.19;5056478;28;772;-39
2021/05/12 01:12:58;;;;;;;;;;;;;;;26.29;31.89;100528.16;5055983;28;955;-43
2021/05/12 01:15:23;;;;;;;;;;;;;;;26.33;31.64;100520.53;5038657;28;868;-44
2021/05/12 01:17:48;;;;;;;;;;;;;;;26.28;31.96;100518.38;5055529;28;807;-37
2021/05/12 01:20:13;;;;;;;;;;;;;;;26.26;31.75;100513.16;5056365;28;1548;-40
2021/05/12 01:22:39;;;;;;;;;;;;;;;26.26;31.92;100507.75;5056659;28;1969;-39
2021/05/12 01:25:05;;;;;;;;;;;;;;;26.33;31.95;100510.59;5056026;28;755;-39
2021/05/12 01:27:30;;;;;;;;;;;;;;;26.32;31.72;100506.22;5043002;28;1007;-40
2021/05/12 01:29:55;;;;;;;;;;;;;;;26.22;31.86;100495.69;5036697;28;768;-41
2021/05/12 01:32:20;;;;;;;;;;;;;;;26.30;31.90;100505.53;5036049;28;1001;-38
2021/05/12 01:34:46;;;;;;;;;;;;;;;26.28;31.63;100492.25;5036200;28;719;-40
2021/05/12 01:37:11;;;;;;;;;;;;;;;26.28;31.43;100492.25;5048475;28;1065;-43
2021/05/12 01:39:36;;;;;;;;;;;;;;;26.31;31.47;100482.13;5055951;28;759;-37
2021/05/12 01:42:02;;;;;;;;;;;;;;;26.31;31.42;100484.81;5046649;28;944;-47
2021/05/12 01:44:27;;;;;;;;;;;;;;;26.32;31.55;100483.78;5036380;28;1952;-46
2021/05/12 01:46:52;;;;;;;;;;;;;;;26.24;31.47;100476.63;5036218;28;820;-40
2021/05/12 01:49:17;;;;;;;;;;;;;;;26.28;31.73;100477.91;5036218;28;791;-39
2021/05/12 01:51:43;;;;;;;;;;;;;;;26.25;31.45;100476.44;5036547;28;796;-39
2021/05/12 01:54:09;;;;;;;;;;;;;;;26.27;31.72;100478.97;5036416;28;813;-40
2021/05/12 01:56:35;;;;;;;;;;;;;;;26.29;31.85;100477.72;5035526;28;992;-40
2021/05/12 01:59:00;;;;;;;;;;;;;;;26.27;31.74;100477.09;5036179;28;840;-39
2021/05/12 02:01:25;;;;;;;;;;;;;;;26.24;31.64;100472.06;5036324;28;740;-41
2021/05/12 02:03:51;;;;;;;;;;;;;;;26.19;31.76;100471.78;5035595;28;1965;-39
2021/05/12 02:06:16;;;;;;;;;;;;;;;26.17;31.76;100471.94;5035942;28;795;-39
2021/05/12 02:08:41;;;;;;;;;;;;;;;26.13;31.44;100457.19;5036182;28;1444;-37
2021/05/12 02:11:07;;;;;;;;;;;;;;;26.24;31.77;100465.84;5035171;28;999;-39
2021/05/12 02:13:32;;;;;;;;;;;;;;;26.33;31.78;100456.66;5036063;28;768;-39
2021/05/12 02:15:58;;;;;;;;;;;;;;;26.23;31.73;100461.44;5035767;28;850;-37
2021/05/12 02:18:23;;;;;;;;;;;;;;;26.16;31.94;100459.50;5035953;28;851;-34
2021/05/12 02:20:49;;;;;;;;;;;;;;;26.15;32.17;100457.84;5035907;28;1040;-40
2021/05/12 02:23:15;;;;;;;;;;;;;;;26.27;31.92;100457.38;5035768;28;1969;-38
2021/05/12 02:25:40;;;;;;;;;;;;;;;26.29;31.77;100463.44;5035743;28;770;-42
2021/05/12 02:28:05;;;;;;;;;;;;;;;26.28;32.03;100462.59;5054795;28;1007;-41
2021/05/12 02:30:31;;;;;;;;;;;;;;;26.30;31.59;100462.41;5059870;28;849;-39
2021/05/12 02:32:56;;;;;;;;;;;;;;;26.35;31.84;100465.41;5059311;28;775;-41
2021/05/12 02:35:22;;;;;;;;;;;;;;;26.27;31.56;100460.94;5059420;28;795;-44
2021/05/12 02:37:47;;;;;;;;;;;;;;;26.34;31.02;100462.91;5059210;28;1076;-42
2021/05/12 02:40:13;;;;;;;;;;;;;;;26.30;31.11;100462.41;5059554;28;806;-42
2021/05/12 02:42:39;;;;;;;;;;;;;;;26.29;31.24;100463.44;5058717;28;1905;-35
2021/05/12 02:45:05;;;;;;;;;;;;;;;26.30;30.99;100465.09;5059260;28;813;-33
2021/05/12 02:47:30;;;;;;;;;;;;;;;26.14;31.19;100461.53;5059105;28;811;-36
2021/05/12 02:49:55;;;;;;;;;;;;;;;26.11;31.29;100456.50;5059153;28;747;-39
2021/05/12 02:52:20;;;;;;;;;;;;;;;26.13;31.47;100459.03;5059387;28;802;-35
2021/05/12 02:54:46;;;;;;;;;;;;;;;26.20;31.09;100467.22;5059114;28;779;-41
2021/05/12 02:57:11;;;;;;;;;;;;;;;26.31;31.00;100463.25;5058608;28;1014;-41
2021/05/12 02:59:37;;;;;;;;;;;;;;;26.25;31.51;100457.56;5059242;28;801;-43
2021/05/12 03:02:02;;;;;;;;;;;;;;;26.22;31.50;100463.34;5058694;28;819;-36
2021/05/12 03:04:27;;;;;;;;;;;;;;;26.31;31.16;100466.75;5058922;28;1969;-38
2021/05/12 03:06:53;;;;;;;;;;;;;;;26.24;31.22;100455.06;5059031;28;748;-34
2021/05/12 03:09:18;;;;;;;;;;;;;;;26.21;31.21;100452.72;5058525;28;841;-32
2021/05/12 03:11:43;;;;;;;;;;;;;;;26.20;31.42;100448.34;5058398;28;951;-31
2021/05/12 03:14:08;;;;;;;;;;;;;;;26.26;30.88;100451.16;5059166;28;739;-37
2021/05/12 03:16:34;;;;;;;;;;;;;;;26.20;31.38;100448.34;5058361;28;740;-32
2021/05/12 03:18:59;;;;;;;;;;;;;;;26.21;31.23;100450.03;5059086;28;787;-42
2021/05/12 03:21:24;;;;;;;;;;;;;;;26.16;31.12;100450.56;5058649;28;1255;-39
2021/05/12 03:23:50;;;;;;;;;;;;;;;26.19;31.29;100443.97;5058047;28;1934;-41
2021/05/12 03:26:16;;;;;;;;;;;;;;;26.24;31.47;100442.41;5058192;28;1010;-43
2021/05/12 03:28:43;;;;;;;;;;;;;;;26.23;31.27;100446.13;5058987;28;803;-39
2021/05/12 03:31:09;;;;;;;;;;;;;;;26.23;29.05;100445.28;5058065;28;830;-42
2021/05/12 03:33:34;;;;;;;;;;;;;;;25.24;22.96;100436.97;5058500;28;771;-38
2021/05/12 03:36:00;;;;;;;;;;;;;;;24.52;23.24;100435.09;5056002;28;1167;-42
2021/05/12 03:38:25;;;;;;;;;;;;;;;24.33;23.42;100431.78;5037682;28;821;-39
2021/05/12 03:40:50;;;;;;;;;;;;;;;24.31;23.31;100428.44;5037529;28;772;-42
2021/05/12 03:43:16;;;;;;;;;;;;;;;24.23;23.48;100435.66;5057177;28;1965;-40
2021/05/12 03:45:41;;;;;;;;;;;;;;;24.05;23.58;100431.31;5057850;28;795;-37
2021/05/12 03:48:07;;;;;;;;;;;;;;;24.11;23.92;100425.25;5058357;28;756;-42
2021/05/12 03:50:32;;;;;;;;;;;;;;;24.11;23.43;100427.09;5058243;28;768;-37
2021/05/12 03:52:57;;;;;;;;;;;;;;;23.85;23.43;100431.66;5057706;28;803;-38
2021/05/12 03:55:23;;;;;;;;;;;;;;;23.77;23.81;100423.59;5057131;28;826;-39
2021/05/12 03:57:48;;;;;;;;;;;;;;;23.89;25.66;100422.25;5057735;28;988;-34
2021/05/12 04:00:14;;;;;;;;;;;;;;;24.15;24.89;100423.91;5057276;28;777;-38
2021/05/12 04:02:40;;;;;;;;;;;;;;;24.22;23.80;100421.41;5057970;28;1894;-36
2021/05/12 04:05:06;;;;;;;;;;;;;;;24.24;23.39;100413.97;5057904;28;811;-38
2021/05/12 04:07:31;;;;;;;;;;;;;;;24.27;23.24;100412.81;5057757;28;789;-34
2021/05/12 04:09:56;;;;;;;;;;;;;;;24.30;23.51;100407.94;5057718;28;858;-47
2021/05/12 04:12:22;;;;;;;;;;;;;;;24.61;24.87;100408.19;5057098;28;951;-35
2021/05/12 04:14:47;;;;;;;;;;;;;;;24.78;25.59;100412.47;5057829;28;866;-35
2021/05/12 04:17:12;;;;;;;;;;;;;;;24.90;25.75;100401.31;5057429;28;800;-35
2021/05/12 04:19:37;;;;;;;;;;;;;;;25.00;25.96;100399.28;5057811;28;817;-35
2021/05/12 04:22:03;;;;;;;;;;;;;;;25.04;26.37;100397.88;5057933;28;1187;-34
2021/05/12 04:24:28;;;;;;;;;;;;;;;25.07;26.37;100397.53;5057071;28;1910;-38
2021/05/12 04:26:54;;;;;;;;;;;;;;;24.96;26.88;100394.44;5048850;28;1034;-35
2021/05/12 04:29:19;;;;;;;;;;;;;;;25.19;26.58;100397.16;5037593;28;915;-40
2021/05/12 04:31:44;;;;;;;;;;;;;;;25.35;26.54;100392.63;5053959;28;1113;-37
2021/05/12 04:34:09;;;;;;;;;;;;;;;25.34;26.65;100394.47;5057575;28;783;-43
2021/05/12 04:36:35;;;;;;;;;;;;;;;25.48;26.68;100392.88;5057576;28;1143;-41
2021/05/12 04:39:01;;;;;;;;;;;;;;;25.56;26.62;100395.50;5056696;28;841;-35
2021/05/12 04:41:27;;;;;;;;;;;;;;;25.64;26.85;100397.31;5035906;28;988;-41
2021/05/12 04:43:54;;;;;;;;;;;;;;;25.66;26.98;100397.13;5037341;28;1905;-41
2021/05/12 04:46:19;;;;;;;;;;;;;;;25.70;27.04;100390.38;5036692;28;779;-42
2021/05/12 04:48:45;;;;;;;;;;;;;;;25.76;27.06;100395.03;5037347;28;737;-35
2021/05/12 04:51:10;;;;;;;;;;;;;;;25.82;26.97;100387.22;5037087;28;1027;-42
2021/05/12 04:53:35;;;;;;;;;;;;;;;25.83;26.87;100389.75;5036357;28;764;-41
2021/05/12 04:56:01;;;;;;;;;;;;;;;25.66;27.58;100380.97;5036935;28;952;-37
2021/05/12 04:58:26;;;;;;;;;;;;;;;25.47;28.94;100379.59;5037061;28;932;-32
2021/05/12 05:00:52;;;;;;;;;;;;;;;25.40;28.86;100374.94;5036462;28;792;-41
2021/05/12 05:03:17;;;;;;;;;;;;;;;25.66;28.24;100378.28;5036878;28;1963;-40
2021/05/12 05:05:42;;;;;;;;;;;;;;;25.98;27.60;100379.00;5036674;28;811;-36
2021/05/12 05:08:08;;;;;;;;;;;;;;;26.12;27.56;100384.56;5036512;28;765;-40
2021/05/12 05:10:33;;;;;;;;;;;;;;;26.28;27.49;100381.69;5042188;28;1096;-35
2021/05/12 05:12:58;;;;;;;;;;;;;;;26.46;27.20;100383.19;5046554;28;1255;-37
2021/05/12 05:15:23;;;;;;;;;;;;;;;26.45;27.10;100381.53;5045712;28;1286;-36
2021/05/12 05:17:52;;;;;;;;;;;;;;;26.53;27.23;100377.88;5050793;28;1183;-35
2021/05/12 05:20:18;;;;;;;;;;;;;;;26.55;27.10;100375.84;5050926;28;1075;-35
2021/05/12 05:22:43;;;;;;;;;;;;;;;26.64;27.44;100374.69;5036058;28;1910;-41
2021/05/12 05:25:08;;;;;;;;;;;;;;;26.79;27.21;100371.16;5052253;28;752;-44
2021/05/12 05:27:34;;;;;;;;;;;;;;;26.78;27.21;100370.31;5034879;28;975;-35
2021/05/12 05:29:59;;;;;;;;;;;;;;;26.82;26.80;100365.38;5035722;28;779;-35
2021/05/12 05:32:24;;;;;;;;;;;;;;;26.88;26.89;100363.75;5036624;28;1480;-34
2021/05/12 05:34:50;;;;;;;;;;;;;;;26.96;26.80;100368.22;5036380;28;803;-46
2021/05/12 05:37:15;;;;;;;;;;;;;;;27.06;26.71;100363.34;5023409;28;856;-43
2021/05/12 05:39:40;;;;;;;;;;;;;;;27.09;26.56;100356.75;5017281;28;816;-42
2021/05/12 05:42:06;;;;;;;;;;;;;;;27.14;26.75;100367.81;5026002;28;913;-43
2021/05/12 05:44:32;;;;;;;;;;;;;;;27.19;26.59;100368.06;5036097;28;1906;-43
2021/05/12 05:46:57;;;;;;;;;;;;;;;27.25;26.37;100363.75;5036592;28;961;-42
2021/05/12 05:49:23;;;;;;;;;;;;;;;27.33;26.22;100360.91;5036338;28;899;-44
2021/05/12 05:51:48;;;;;;;;;;;;;;;27.28;26.55;100360.66;5036492;28;741;-44
2021/05/12 05:54:14;;;;;;;;;;;;;;;27.37;26.52;100354.13;5036379;28;833;-41
2021/05/12 05:56:39;;;;;;;;;;;;;;;27.38;26.25;100354.94;5035710;28;889;-42
2021/05/12 05:59:04;;;;;;;;;;;;;;;27.40;26.10;100360.97;5036053;28;760;-37
2021/05/12 06:01:29;;;;;;;;;;;;;;;27.47;26.24;100356.47;5036269;28;910;-45
2021/05/12 06:03:55;;;;;;;;;;;;;;;27.56;26.20;100353.63;5038685;28;1960;-37
2021/05/12 06:06:20;;;;;;;;;;;;;;;27.41;26.62;100362.63;5039849;28;882;-42
2021/05/12 06:08:45;;;;;;;;;;;;;;;27.32;26.84;100353.00;5029178;28;806;-41
2021/05/12 06:11:10;;;;;;;;;;;;;;;27.00;27.89;100358.69;5022089;28;956;-39
2021/05/12 06:13:36;;;;;;;;;;;;;;;26.73;28.47;100355.72;5039622;28;739;-41
2021/05/12 06:16:03;;;;;;;;;;;;;;;26.71;28.46;100357.78;5040037;28;762;-45
2021/05/12 06:18:28;;;;;;;;;;;;;;;26.74;27.16;100355.50;5039944;28;888;-43
2021/05/12 06:20:54;;;;;;;;;;;;;;;26.49;26.35;100357.72;5049830;28;1123;-35
2021/05/12 06:23:19;;;;;;;;;;;;;;;26.87;26.69;100359.41;5059562;28;1906;-39
2021/05/12 06:25:44;;;;;;;;;;;;;;;27.22;26.85;100356.03;5059921;28;830;-39
2021/05/12 06:28:09;;;;;;;;;;;;;;;27.30;26.90;100353.22;5059247;28;1159;-37
2021/05/12 06:30:35;;;;;;;;;;;;;;;27.36;26.84;100349.72;5059386;28;957;-43
2021/05/12 06:33:00;;;;;;;;;;;;;;;27.48;27.07;100350.03;5060069;28;755;-37
2021/05/12 06:35:25;;;;;;;;;;;;;;;27.50;27.02;100349.84;5059933;28;819;-41
2021/05/12 06:37:51;;;;;;;;;;;;;;;27.51;27.02;100346.09;5040905;28;1072;-41
2021/05/12 06:40:16;;;;;;;;;;;;;;;27.55;27.24;100339.28;5038977;28;872;-41
2021/05/12 06:42:42;;;;;;;;;;;;;;;27.50;27.14;100345.28;5053724;28;1898;-39
2021/05/12 06:45:07;;;;;;;;;;;;;;;27.51;27.44;100335.28;5059075;28;759;-44
2021/05/12 06:47:32;;;;;;;;;;;;;;;27.56;27.46;100340.13;5059515;28;721;-39
2021/05/12 06:49:58;;;;;;;;;;;;;;;27.60;27.39;100338.69;5059467;28;923;-39
2021/05/12 06:52:23;;;;;;;;;;;;;;;27.52;27.60;100331.56;5058443;28;857;-39
2021/05/12 06:54:48;;;;;;;;;;;;;;;27.57;27.54;100339.94;5058860;28;942;-39
2021/05/12 06:57:14;;;;;;;;;;;;;;;27.62;27.41;100334.78;5058779;28;987;-39
2021/05/12 06:59:39;;;;;;;;;;;;;;;27.60;27.40;100336.00;5058594;28;839;-45
2021/05/12 07:02:04;;;;;;;;;;;;;;;27.67;27.55;100325.22;5059162;28;751;-38
2021/05/12 07:04:30;;;;;;;;;;;;;;;27.63;27.20;100330.19;5058613;28;1969;-42
2021/05/12 07:06:55;;;;;;;;;;;;;;;27.73;27.53;100322.59;5058478;28;854;-38
2021/05/12 07:09:20;;;;;;;;;;;;;;;27.65;27.49;100330.00;5059180;28;768;-44
2021/05/12 07:11:45;;;;;;;;;;;;;;;27.49;27.89;100329.28;5055868;28;1047;-43
2021/05/12 07:14:11;;;;;;;;;;;;;;;27.62;27.64;100325.81;5037021;28;784;-42
2021/05/12 07:16:36;;;;;;;;;;;;;;;27.77;27.35;100328.47;5037968;28;803;-42
2021/05/12 07:19:01;;;;;;;;;;;;;;;27.83;26.91;100321.41;5038902;28;755;-44
2021/05/12 07:21:27;;;;;;;;;;;;;;;27.83;27.35;100316.84;5038329;28;1159;-42
2021/05/12 07:23:52;;;;;;;;;;;;;;;27.59;27.56;100321.63;5038743;28;1969;-41
2021/05/12 07:26:17;;;;;;;;;;;;;;;27.42;27.23;100315.72;5038160;28;912;-42
2021/05/12 07:28:45;;;;;;;;;;;;;;;27.21;27.71;100314.69;5038293;28;747;-42
2021/05/12 07:31:10;;;;;;;;;;;;;;;27.64;26.98;100318.38;5038694;28;790;-42
2021/05/12 07:33:35;;;;;;;;;;;;;;;27.92;26.52;100309.41;5038537;28;822;-40
2021/05/12 07:36:01;;;;;;;;;;;;;;;28.01;26.24;100311.97;5037788;28;1113;-42
2021/05/12 07:38:26;;;;;;;;;;;;;;;28.11;26.24;100310.53;5038312;28;856;-41
2021/05/12 07:40:51;;;;;;;;;;;;;;;27.95;26.76;100306.31;5038198;28;787;-36
2021/05/12 07:43:17;;;;;;;;;;;;;;;27.55;27.51;100306.03;5037500;28;1959;-38
2021/05/12 07:45:42;;;;;;;;;;;;;;;27.38;27.53;100307.16;5037924;28;839;-38
2021/05/12 07:48:08;;;;;;;;;;;;;;;27.31;27.50;100308.97;5038217;28;716;-36
2021/05/12 07:50:34;;;;;;;;;;;;;;;27.19;27.77;100316.78;5038151;28;760;-41
2021/05/12 07:53:00;;;;;;;;;;;;;;;27.16;28.24;100300.13;5038060;28;931;-39
2021/05/12 07:55:26;;;;;;;;;;;;;;;27.09;28.36;100298.19;5037939;28;747;-44
2021/05/12 07:57:51;;;;;;;;;;;;;;;27.10;28.45;100296.31;5037627;28;1011;-41
2021/05/12 08:00:17;;;;;;;;;;;;;;;27.18;28.47;100295.34;5038071;28;776;-41
2021/05/12 08:02:42;;;;;;;;;;;;;;;27.20;28.09;100296.84;5037993;28;1959;-39
2021/05/12 08:05:08;;;;;;;;;;;;;;;27.18;28.00;100290.78;5037668;28;751;-42
2021/05/12 08:07:33;;;;;;;;;;;;;;;27.19;28.15;100288.94;5038243;28;799;-39
2021/05/12 08:09:59;;;;;;;;;;;;;;;27.13;28.30;100293.22;5038204;28;826;-39
2021/05/12 08:12:24;;;;;;;;;;;;;;;27.13;28.24;100287.81;5036844;28;1003;-39
2021/05/12 08:14:50;;;;;;;;;;;;;;;27.15;28.14;100283.06;5037670;28;858;-39
2021/05/12 08:17:15;;;;;;;;;;;;;;;27.17;28.08;100283.72;5037380;28;1016;-42
2021/05/12 08:19:40;;;;;;;;;;;;;;;27.07;28.55;100283.22;5037597;28;1312;-41
2021/05/12 08:22:06;;;;;;;;;;;;;;;27.08;28.61;100280.31;5057240;28;792;-42
2021/05/12 08:24:31;;;;;;;;;;;;;;;27.12;28.17;100278.91;5057882;28;1910;-41
2021/05/12 08:26:57;;;;;;;;;;;;;;;27.05;28.78;100277.16;5050805;28;1041;-42
2021/05/12 08:29:22;;;;;;;;;;;;;;;27.09;28.60;100279.28;5057420;28;736;-41
2021/05/12 08:31:47;;;;;;;;;;;;;;;27.09;28.30;100264.97;5057509;28;783;-38
2021/05/12 08:34:13;;;;;;;;;;;;;;;27.12;28.19;100283.47;5056703;28;822;-42
2021/05/12 08:36:38;;;;;;;;;;;;;;;27.30;27.79;100277.59;5057288;28;1041;-42
2021/05/12 08:39:04;;;;;;;;;;;;;;;27.24;28.27;100276.50;5057694;28;740;-42
2021/05/12 08:41:32;;;;;;;;;;;;;;;27.28;27.98;100279.66;5056521;28;915;-42
2021/05/12 08:43:57;;;;;;;;;;;;;;;27.29;28.14;100281.34;5056984;28;1969;-42
2021/05/12 08:46:22;;;;;;;;;;;;;;;27.35;28.16;100280.53;5057336;28;763;-39
2021/05/12 08:48:48;;;;;;;;;;;;;;;27.26;28.24;100287.09;5056380;28;859;-40
2021/05/12 08:51:13;;;;;;;;;;;;;;;27.32;28.37;100280.09;5072927;28;809;-42
2021/05/12 08:53:38;;;;;;;;;;;;;;;27.34;28.18;100281.56;5057068;28;759;-42
2021/05/12 08:56:04;;;;;;;;;;;;;;;27.33;28.35;100285.31;5057004;28;892;-40
2021/05/12 08:58:30;;;;;;;;;;;;;;;27.38;28.09;100293.66;5038405;28;1536;-42
2021/05/12 09:00:55;;;;;;;;;;;;;;;27.29;28.60;100286.72;5057039;28;780;-40
2021/05/12 09:03:21;;;;;;;;;;;;;;;27.18;26.24;100287.25;5056762;28;1969;-39
2021/05/12 09:05:46;;;;;;;;;;;;;;;26.92;25.18;100289.50;5056379;28;796;-40
2021/05/12 09:08:11;;;;;;;;;;;;;;;26.85;25.22;100291.28;5057105;28;747;-40
2021/05/12 09:10:37;;;;;;;;;;;;;;;26.69;27.06;100295.06;5056797;28;898;-38
2021/05/12 09:13:02;;;;;;;;;;;;;;;26.68;28.05;100298.78;5055805;28;991;-40
2021/05/12 09:15:28;;;;;;;;;;;;;;;26.67;28.58;100295.25;5057048;28;764;-38
2021/05/12 09:17:57;;;;;;;;;;;;;;;26.81;28.09;100300.81;5056572;28;741;-40
2021/05/12 09:20:24;;;;;;;;;;;;;;;26.68;26.77;100294.22;5049046;28;1102;-41
2021/05/12 09:23:09;;;;;;;;;;;;;;;26.64;24.96;100296.47;5036453;28;1910;-39
2021/05/12 09:25:36;;;;;;;;;;;;;;;26.58;24.47;100291.00;5036037;28;1277;-39
2021/05/12 09:28:17;;;;;;;;;;;;;;;26.61;24.49;100301.44;5036429;28;967;-40
2021/05/12 09:30:43;;;;;;;;;;;;;;;26.53;24.34;100295.13;5036607;28;744;-41
2021/05/12 09:33:09;;;;;;;;;;;;;;;26.50;24.36;100298.19;5036472;28;823;-40
2021/05/12 09:35:41;;;;;;;;;;;;;;;26.41;24.37;100302.00;5036466;28;788;-41
2021/05/12 09:38:19;;;;;;;;;;;;;;;26.48;23.27;100297.53;5037748;28;1117;-39
2021/05/12 09:40:44;;;;;;;;;;;;;;;26.64;24.27;100296.47;5040302;28;811;-39
2021/05/12 09:43:12;;;;;;;;;;;;;;;26.78;23.96;100302.84;5040096;28;1923;-42
2021/05/12 09:45:38;;;;;;;;;;;;;;;26.62;22.71;100297.69;5040156;28;875;-39
2021/05/12 09:48:03;;;;;;;;;;;;;;;26.49;23.94;100293.81;5040293;28;834;-37
2021/05/12 09:50:31;;;;;;;;;;;;;;;26.58;23.48;100288.31;5040575;28;840;-40
2021/05/12 09:52:57;;;;;;;;;;;;;;;26.65;23.52;100283.81;5039403;28;850;-38
2021/05/12 09:55:36;;;;;;;;;;;;;;;26.85;24.16;100283.19;5039970;28;839;-36
2021/05/12 09:58:04;;;;;;;;;;;;;;;26.99;25.39;100278.75;5040218;28;1000;-37
2021/05/12 10:00:31;;;;;;;;;;;;;;;27.05;25.81;100278.00;5040225;28;798;-36
2021/05/12 10:02:57;;;;;;;;;;;;;;;27.09;25.74;100286.56;5039918;28;1956;-40
2021/05/12 10:05:23;;;;;;;;;;;;;;;27.10;25.91;100267.47;5040576;28;744;-37
2021/05/12 10:07:49;;;;;;;;;;;;;;;27.14;26.04;100276.84;5039915;28;803;-36
2021/05/12 10:10:14;;;;;;;;;;;;;;;27.17;25.89;100275.63;5039554;28;794;-34
2021/05/12 10:12:39;;;;;;;;;;;;;;;26.60;27.39;100275.47;5054611;28;1299;-37
2021/05/12 10:15:07;;;;;;;;;;;;;;;26.28;27.98;100273.00;5039498;28;803;-38
2021/05/12 10:17:33;;;;;;;;;;;;;;;26.09;27.46;100272.56;5039508;28;707;-38
2021/05/12 10:19:59;;;;;;;;;;;;;;;25.64;28.81;100281.50;5042512;28;1106;-39
2021/05/12 10:22:24;;;;;;;;;;;;;;;25.52;27.57;100266.78;5059583;28;1902;-38
2021/05/12 10:24:49;;;;;;;;;;;;;;;25.80;26.93;100269.72;5058939;28;840;-36
2021/05/12 10:27:18;;;;;;;;;;;;;;;26.24;25.82;100275.22;5058962;28;991;-38
2021/05/12 10:29:47;;;;;;;;;;;;;;;26.37;26.45;100277.31;5059739;28;784;-38
2021/05/12 10:32:15;;;;;;;;;;;;;;;26.55;26.43;100276.03;5074047;28;791;-39
2021/05/12 10:34:41;;;;;;;;;;;;;;;26.62;27.00;100276.97;5058318;28;922;-39
2021/05/12 10:37:20;;;;;;;;;;;;;;;26.74;27.40;100271.06;5048340;28;1151;-38
2021/05/12 10:39:50;;;;;;;;;;;;;;;26.75;27.47;100270.00;5039219;28;828;-34
2021/05/12 10:42:35;;;;;;;;;;;;;;;26.76;27.21;100260.88;5050128;28;1010;-39
2021/05/12 10:45:02;;;;;;;;;;;;;;;26.78;26.98;100254.28;5059016;28;1341;-38
2021/05/12 10:47:35;;;;;;;;;;;;;;;26.80;27.44;100248.69;5059252;28;768;-40
2021/05/12 10:50:00;;;;;;;;;;;;;;;26.58;27.98;100254.06;5058860;28;874;-40
2021/05/12 10:52:25;;;;;;;;;;;;;;;26.73;27.73;100250.47;5059414;28;783;-38
2021/05/12 10:54:51;;;;;;;;;;;;;;;26.80;27.64;100250.53;5059283;28;892;-36
2021/05/12 10:57:35;;;;;;;;;;;;;;;26.86;27.42;100255.19;5056855;28;814;-38
2021/05/12 11:00:00;;;;;;;;;;;;;;;26.90;27.71;100253.75;5059276;28;875;-40
2021/05/12 11:02:44;;;;;;;;;;;;;;;26.92;27.84;100248.16;5057684;28;1906;-38
2021/05/12 11:05:09;;;;;;;;;;;;;;;26.89;27.94;100244.00;5059330;28;767;-37
2021/05/12 11:07:35;;;;;;;;;;;;;;;26.85;28.04;100240.84;5041462;28;765;-37
2021/05/12 11:10:00;;;;;;;;;;;;;;;26.91;28.11;100233.81;5058474;28;870;-36
2021/05/12 11:12:32;;;;;;;;;;;;;;;26.89;28.03;100236.72;5057733;28;1011;-37
2021/05/12 11:14:58;;;;;;;;;;;;;;;26.95;28.24;100228.88;5059053;28;741;-36
2021/05/12 11:17:40;;;;;;;;;;;;;;;27.02;28.26;100235.22;5058385;28;814;-36
2021/05/12 11:20:11;;;;;;;;;;;;;;;26.97;28.43;100240.31;5058659;28;1270;-37
2021/05/12 11:22:39;;;;;;;;;;;;;;;27.06;28.19;100233.78;5058561;28;1901;-39
2021/05/12 11:25:11;;;;;;;;;;;;;;;27.02;28.85;100229.81;5058075;28;1166;-39
2021/05/12 11:32:32;;;;;;;;;;;;;;;27.13;28.60;100231.13;5057926;28;593;-38
2021/05/12 11:34:57;;;;;;;;;;;;;;;27.10;28.29;100228.84;5058493;28;823;-39
2021/05/12 11:37:24;;;;;;;;;;;;;;;27.08;28.89;100218.22;5044976;28;1180;-35
2021/05/12 11:39:50;;;;;;;;;;;;;;;27.14;28.58;100214.72;5038071;28;846;-37
2021/05/12 11:42:22;;;;;;;;;;;;;;;27.15;28.48;100218.28;5050182;28;885;-40
2021/05/12 11:44:48;;;;;;;;;;;;;;;27.12;28.83;100224.06;5057607;28;1894;-36
2021/05/12 11:47:27;;;;;;;;;;;;;;;27.09;28.67;100227.97;5057905;28;752;-35
2021/05/12 11:49:52;;;;;;;;;;;;;;;27.15;28.53;100220.97;5058398;28;774;-35
2021/05/12 11:52:25;;;;;;;;;;;;;;;27.10;29.01;100221.56;5057985;28;775;-40
2021/05/12 11:54:51;;;;;;;;;;;;;;;27.02;28.93;100219.88;5057454;28;855;-34
2021/05/12 11:57:16;;;;;;;;;;;;;;;26.93;28.37;100222.84;5039633;28;928;-39
2021/05/12 11:59:41;;;;;;;;;;;;;;;26.99;28.96;100225.59;5040319;28;744;-35
2021/05/12 12:02:11;;;;;;;;;;;;;;;27.06;28.54;100232.97;5038406;28;1523;-33
2021/05/12 12:04:39;;;;;;;;;;;;;;;27.06;28.75;100222.97;5057678;28;2006;-34
2021/05/12 12:07:04;;;;;;;;;;;;;;;27.00;28.81;100229.13;5057486;28;815;-40
2021/05/12 12:09:30;;;;;;;;;;;;;;;26.95;28.99;100227.03;5057947;28;716;-40
2021/05/12 12:11:55;;;;;;;;;;;;;;;26.94;28.75;100219.97;5057285;28;1003;-39
2021/05/12 12:14:26;;;;;;;;;;;;;;;26.95;28.93;100223.47;5057544;28;775;-40
2021/05/12 12:16:52;;;;;;;;;;;;;;;27.00;28.97;100216.47;5057195;28;855;-34
2021/05/12 12:19:17;;;;;;;;;;;;;;;26.88;29.35;100216.19;5057505;28;806;-34
2021/05/12 12:21:43;;;;;;;;;;;;;;;26.95;28.42;100215.38;5056466;28;1041;-40
2021/05/12 12:24:12;;;;;;;;;;;;;;;27.02;28.89;100213.63;5056107;28;2240;-39
2021/05/12 12:26:38;;;;;;;;;;;;;;;27.01;28.82;100204.69;5055972;28;983;-39
2021/05/12 12:29:05;;;;;;;;;;;;;;;27.04;28.33;100208.88;5056594;28;760;-38
2021/05/12 12:31:33;;;;;;;;;;;;;;;26.99;29.18;100211.28;5055804;28;783;-37
2021/05/12 12:34:18;;;;;;;;;;;;;;;26.96;28.92;100199.00;5055032;28;1058;-38
2021/05/12 12:36:47;;;;;;;;;;;;;;;26.96;29.23;100193.59;5056132;28;1081;-39
2021/05/12 12:39:12;;;;;;;;;;;;;;;26.94;28.90;100200.22;5056007;28;843;-37
2021/05/12 12:41:38;;;;;;;;;;;;;;;26.68;27.54;100190.88;5054400;28;943;-36
2021/05/12 12:44:03;;;;;;;;;;;;;;;26.72;26.72;100186.75;5055935;28;1949;-37
2021/05/12 12:46:28;;;;;;;;;;;;;;;26.60;25.78;100187.28;5055893;28;831;-34
2021/05/12 12:48:54;;;;;;;;;;;;;;;26.55;25.92;100184.34;5038263;28;1274;-38
2021/05/12 12:51:32;;;;;;;;;;;;;;;26.58;26.20;100183.94;5056895;28;736;-37
2021/05/12 12:53:57;;;;;;;;;;;;;;;26.57;25.94;100181.44;5055368;28;516;-35